Time;durP1;ratioP1;P1;durP2;ratioP2;P2;SDS_P1;SDS_P2;PMS_P1;PMS_P2;Temp;Humidity;BMP_temperature;BMP_pressure;BME280_temperature;BME280_humidity;BME280_pressure;Samples;Min_cycle;Max_cycle;Signal;HPM_P1;HPM_P2
2023/04/13 00:01:09;;;;;;;5.37;1.53;;;7.80;99.90;;;;;;5092773;28;20221;-71
2023/04/13 00:03:38;;;;;;;4.87;1.77;;;7.80;99.90;;;;;;5093572;28;20168;-69
2023/04/13 00:06:04;;;;;;;5.53;1.70;;;7.90;99.90;;;;;;5093128;28;20207;-71
2023/04/13 00:08:30;;;;;;;6.40;1.50;;;7.70;99.90;;;;;;5093334;28;20160;-71
2023/04/13 00:10:56;;;;;;;6.57;1.50;;;7.70;99.90;;;;;;5093386;28;20168;-71
2023/04/13 00:13:23;;;;;;;5.90;1.50;;;7.60;99.90;;;;;;5093314;28;20171;-71
2023/04/13 00:15:49;;;;;;;9.10;2.03;;;7.60;99.90;;;;;;5092654;28;20175;-71
2023/04/13 00:18:19;;;;;;;7.57;2.00;;;7.70;99.90;;;;;;5093292;28;20168;-71
2023/04/13 00:20:45;;;;;;;9.23;2.60;;;7.60;99.90;;;;;;5092968;28;20172;-71
2023/04/13 00:23:11;;;;;;;9.40;2.67;;;7.60;99.90;;;;;;5093284;28;20164;-71
2023/04/13 00:25:36;;;;;;;8.43;2.50;;;7.60;99.90;;;;;;5093108;28;20704;-71
2023/04/13 00:28:05;;;;;;;6.93;2.67;;;7.60;99.90;;;;;;5097342;28;20167;-71
2023/04/13 00:30:31;;;;;;;5.43;2.70;;;7.60;99.90;;;;;;5096495;28;20219;-71
2023/04/13 00:33:02;;;;;;;8.40;2.47;;;7.60;99.90;;;;;;5097262;28;20163;-71
2023/04/13 00:35:28;;;;;;;6.77;2.07;;;7.60;99.90;;;;;;5097029;28;20647;-71
2023/04/13 00:37:53;;;;;;;6.33;2.17;;;7.60;99.90;;;;;;5097405;28;20822;-71
2023/04/13 00:40:19;;;;;;;6.60;2.07;;;7.50;99.90;;;;;;5096665;28;20623;-71
2023/04/13 00:42:46;;;;;;;4.53;2.17;;;7.50;99.90;;;;;;5095723;28;20664;-71
2023/04/13 00:45:12;;;;;;;6.40;1.63;;;7.50;99.90;;;;;;5096550;28;20235;-72
2023/04/13 00:47:40;;;;;;;6.53;1.63;;;7.50;99.90;;;;;;5095760;28;20266;-72
2023/04/13 00:50:16;;;;;;;6.07;1.80;;;7.50;99.90;;;;;;5096871;28;20172;-71
2023/04/13 00:52:42;;;;;;;5.43;1.83;;;7.50;99.90;;;;;;5096998;28;20163;-72
2023/04/13 00:55:08;;;;;;;4.10;1.63;;;7.50;99.90;;;;;;5096705;28;20175;-72
2023/04/13 00:57:39;;;;;;;7.30;2.30;;;7.50;99.90;;;;;;5096878;28;20570;-71
2023/04/13 01:00:09;;;;;;;6.60;2.00;;;7.40;99.90;;;;;;5096486;28;20172;-71
2023/04/13 01:02:40;;;;;;;7.53;2.37;;;7.50;99.90;;;;;;5096693;28;20168;-72
2023/04/13 01:05:07;;;;;;;6.93;2.33;;;7.50;99.90;;;;;;5096383;28;20345;-70
2023/04/13 01:07:46;;;;;;;8.03;2.20;;;7.50;99.90;;;;;;5096827;28;20194;-70
2023/04/13 01:10:26;;;;;;;7.97;2.37;;;7.40;99.90;;;;;;5096416;28;20180;-72
2023/04/13 01:13:14;;;;;;;8.53;2.03;;;7.50;99.90;;;;;;5096562;28;20201;-69
2023/04/13 01:15:45;;;;;;;6.27;2.10;;;7.50;99.90;;;;;;5096360;28;20180;-73
2023/04/13 01:18:14;;;;;;;8.67;2.27;;;7.50;99.90;;;;;;5096355;28;20164;-72
2023/04/13 01:20:42;;;;;;;5.53;1.90;;;7.50;99.90;;;;;;5096388;28;20176;-71
2023/04/13 01:23:26;;;;;;;6.10;1.93;;;7.50;99.90;;;;;;5096265;28;20172;-71
2023/04/13 01:25:58;;;;;;;3.13;1.77;;;7.50;99.90;;;;;;5095937;28;20621;-71
2023/04/13 01:28:25;;;;;;;7.43;2.30;;;7.50;99.90;;;;;;5095838;28;20190;-70
2023/04/13 01:30:52;;;;;;;6.83;1.80;;;7.50;99.90;;;;;;5095886;28;20195;-71
2023/04/13 01:33:19;;;;;;;4.87;1.67;;;7.50;99.90;;;;;;5095936;28;20180;-72
2023/04/13 01:35:46;;;;;;;8.73;1.83;;;7.50;99.90;;;;;;5096046;28;20179;-72
2023/04/13 01:38:13;;;;;;;5.13;2.00;;;7.50;99.90;;;;;;5095624;28;20171;-72
2023/04/13 01:40:43;;;;;;;6.33;2.10;;;7.60;99.90;;;;;;5095757;28;20192;-71
2023/04/13 01:43:09;;;;;;;6.57;1.60;;;7.60;99.90;;;;;;5095559;28;20182;-71
2023/04/13 01:46:08;;;;;;;2.47;1.40;;;7.60;99.90;;;;;;5095606;28;20211;-71
2023/04/13 01:48:55;;;;;;;2.80;1.43;;;7.50;99.90;;;;;;5095856;28;20497;-70
2023/04/13 01:51:23;;;;;;;4.17;1.43;;;7.40;99.90;;;;;;5094276;28;20179;-71
2023/04/13 01:54:06;;;;;;;5.00;2.13;;;7.40;99.90;;;;;;5095834;28;20175;-70
2023/04/13 01:56:32;;;;;;;8.33;1.53;;;7.40;99.90;;;;;;5095379;28;20168;-71
2023/04/13 01:59:02;;;;;;;3.47;1.60;;;7.40;99.90;;;;;;5095679;28;20175;-71
2023/04/13 02:01:27;;;;;;;5.47;1.80;;;7.40;99.90;;;;;;5095905;28;20225;-71
2023/04/13 02:03:53;;;;;;;4.03;1.70;;;7.40;99.90;;;;;;5095359;28;20620;-72
2023/04/13 02:06:19;;;;;;;3.23;1.60;;;7.40;99.90;;;;;;5095247;28;20704;-72
2023/04/13 02:08:45;;;;;;;2.37;1.03;;;7.40;99.90;;;;;;5095369;28;20194;-71
2023/04/13 02:11:11;;;;;;;2.80;0.93;;;7.40;99.90;;;;;;5093631;28;20211;-72
2023/04/13 02:13:37;;;;;;;2.70;1.10;;;7.30;99.90;;;;;;5095397;28;20218;-72
2023/04/13 02:16:05;;;;;;;1.20;0.80;;;7.40;99.90;;;;;;5095183;28;20171;-70
2023/04/13 02:18:37;;;;;;;1.73;0.80;;;7.40;99.90;;;;;;5095385;28;20260;-72
2023/04/13 02:21:08;;;;;;;3.07;1.27;;;7.40;99.90;;;;;;5095185;28;20164;-72
2023/04/13 02:23:39;;;;;;;1.33;0.80;;;7.40;99.90;;;;;;5095319;28;20264;-72
2023/04/13 02:26:09;;;;;;;1.70;1.20;;;7.40;99.90;;;;;;5094687;28;20663;-72
2023/04/13 02:28:44;;;;;;;3.30;1.17;;;7.40;99.90;;;;;;5095073;28;20168;-71
2023/04/13 02:31:15;;;;;;;4.93;1.27;;;7.40;99.90;;;;;;5094912;28;20266;-71
2023/04/13 02:33:43;;;;;;;3.17;1.50;;;7.40;99.90;;;;;;5095334;28;20217;-71
2023/04/13 02:36:10;;;;;;;2.93;1.43;;;7.30;99.90;;;;;;5095169;28;20171;-71
2023/04/13 02:38:36;;;;;;;1.53;1.00;;;7.30;99.90;;;;;;5094774;28;20211;-73
2023/04/13 02:41:02;;;;;;;2.40;1.37;;;7.30;99.90;;;;;;5094039;28;20180;-72
2023/04/13 02:43:28;;;;;;;4.50;1.30;;;7.30;99.90;;;;;;5094921;28;20178;-72
2023/04/13 02:45:55;;;;;;;4.67;1.30;;;7.30;99.90;;;;;;5094567;28;20651;-72
2023/04/13 02:48:21;;;;;;;2.63;1.13;;;7.20;99.90;;;;;;5094208;28;20619;-72
2023/04/13 02:50:47;;;;;;;4.13;1.20;;;7.10;99.90;;;;;;5094140;28;20201;-71
2023/04/13 02:53:15;;;;;;;2.13;1.40;;;7.10;99.90;;;;;;5094733;28;20654;-71
2023/04/13 02:55:43;;;;;;;4.03;1.50;;;7.10;99.90;;;;;;5094032;28;20494;-71
2023/04/13 02:58:13;;;;;;;3.37;1.43;;;7.00;99.90;;;;;;5094629;28;20180;-71
2023/04/13 03:00:43;;;;;;;4.93;1.53;;;7.00;99.90;;;;;;5127310;27;20180;-71
2023/04/13 03:03:08;;;;;;;2.90;1.07;;;7.00;99.90;;;;;;5094554;28;20229;-72
2023/04/13 03:05:37;;;;;;;5.40;1.30;;;7.00;99.90;;;;;;5094017;28;20215;-73
2023/04/13 03:08:04;;;;;;;1.83;1.10;;;7.00;99.90;;;;;;5094504;28;20199;-72
2023/04/13 03:10:30;;;;;;;4.93;1.30;;;7.00;99.90;;;;;;5093716;28;20186;-72
2023/04/13 03:12:55;;;;;;;3.23;1.10;;;7.00;99.90;;;;;;5094087;28;20263;-72
2023/04/13 03:15:21;;;;;;;3.30;1.40;;;7.00;99.90;;;;;;5094105;28;20183;-71
2023/04/13 03:17:47;;;;;;;2.30;1.10;;;7.00;99.90;;;;;;5093654;28;20194;-73
2023/04/13 03:20:19;;;;;;;1.57;1.20;;;7.00;99.90;;;;;;5093977;28;20172;-72
2023/04/13 03:22:45;;;;;;;2.30;1.10;;;7.10;99.90;;;;;;5093800;28;20263;-71
2023/04/13 03:25:10;;;;;;;3.40;1.00;;;7.00;99.90;;;;;;5093597;28;20286;-73
2023/04/13 03:27:36;;;;;;;2.27;0.90;;;6.90;99.90;;;;;;5093640;28;20206;-72
2023/04/13 03:30:02;;;;;;;2.53;1.27;;;6.90;99.90;;;;;;5093733;28;20168;-72
2023/04/13 03:32:28;;;;;;;3.57;1.30;;;7.00;99.90;;;;;;5093385;28;20216;-73
2023/04/13 03:34:54;;;;;;;2.80;1.00;;;6.90;99.90;;;;;;5093541;28;20251;-71
2023/04/13 03:37:20;;;;;;;3.60;1.10;;;6.90;99.90;;;;;;5093520;28;20254;-73
2023/04/13 03:39:45;;;;;;;2.57;1.03;;;6.90;99.90;;;;;;5091370;28;20724;-71
2023/04/13 03:42:11;;;;;;;2.33;1.10;;;6.90;99.90;;;;;;5093200;28;20533;-72
2023/04/13 03:44:37;;;;;;;1.20;1.00;;;6.90;99.90;;;;;;5093315;28;20214;-71
2023/04/13 03:47:02;;;;;;;3.60;1.13;;;6.90;99.90;;;;;;5092823;28;20179;-72
2023/04/13 03:49:31;;;;;;;2.20;1.20;;;6.80;99.90;;;;;;5091957;28;20186;-72
2023/04/13 03:51:59;;;;;;;4.43;1.30;;;6.80;99.90;;;;;;5092844;28;20234;-71
2023/04/13 03:54:25;;;;;;;4.80;1.37;;;6.80;99.90;;;;;;5091486;28;20216;-71
2023/04/13 03:56:54;;;;;;;4.30;1.30;;;6.80;99.90;;;;;;5092544;28;20229;-71
2023/04/13 03:59:19;;;;;;;3.80;1.30;;;6.80;99.90;;;;;;5092966;28;20234;-73
2023/04/13 04:01:45;;;;;;;4.77;1.57;;;6.80;99.90;;;;;;5092774;28;20176;-72
2023/04/13 04:04:13;;;;;;;5.57;1.70;;;6.80;99.90;;;;;;5092742;28;20176;-72
2023/04/13 04:06:39;;;;;;;6.77;1.93;;;6.80;99.90;;;;;;5092746;28;20225;-72
2023/04/13 04:09:09;;;;;;;9.27;1.83;;;6.90;99.90;;;;;;5092374;28;20175;-71
2023/04/13 04:11:34;;;;;;;4.13;1.67;;;6.90;99.90;;;;;;5092489;28;20207;-72
2023/04/13 04:14:02;;;;;;;3.53;1.50;;;6.90;99.90;;;;;;5092856;28;20195;-73
2023/04/13 04:16:29;;;;;;;2.77;1.53;;;6.90;99.90;;;;;;5092695;28;20194;-73
2023/04/13 04:18:54;;;;;;;4.07;1.50;;;6.90;99.90;;;;;;5093002;28;20168;-72
2023/04/13 04:21:22;;;;;;;6.13;1.73;;;6.90;99.90;;;;;;5091278;28;20600;-73
2023/04/13 04:23:49;;;;;;;5.33;1.80;;;7.00;99.90;;;;;;5092284;28;20176;-74
2023/04/13 04:26:16;;;;;;;5.70;1.80;;;7.00;99.90;;;;;;5092678;28;20261;-73
2023/04/13 04:28:44;;;;;;;7.63;2.13;;;7.00;99.90;;;;;;5092192;28;20195;-72
2023/04/13 04:31:13;;;;;;;10.90;2.10;;;7.00;99.90;;;;;;5092491;28;20168;-73
2023/04/13 04:33:38;;;;;;;8.50;2.00;;;7.00;99.90;;;;;;5092374;28;20246;-72
2023/04/13 04:36:15;;;;;;;4.73;1.57;;;7.10;99.90;;;;;;5091986;28;20652;-72
2023/04/13 04:38:40;;;;;;;5.93;1.87;;;7.20;99.90;;;;;;5091631;28;20215;-71
2023/04/13 04:41:07;;;;;;;7.93;2.27;;;7.30;99.90;;;;;;5092479;28;20187;-74
2023/04/13 04:43:36;;;;;;;9.97;2.07;;;7.30;99.90;;;;;;5092357;28;20186;-71
2023/04/13 04:46:03;;;;;;;4.20;1.60;;;7.30;99.90;;;;;;5092110;28;20207;-71
2023/04/13 04:48:30;;;;;;;6.03;1.87;;;7.40;99.90;;;;;;5092433;28;20192;-73
2023/04/13 04:50:58;;;;;;;2.93;1.80;;;7.50;99.90;;;;;;5091731;28;20539;-72
2023/04/13 04:53:27;;;;;;;5.13;2.10;;;7.50;99.90;;;;;;5091819;28;20160;-71
2023/04/13 04:55:53;;;;;;;6.47;2.20;;;7.60;99.90;;;;;;5090812;28;20176;-72
2023/04/13 04:58:19;;;;;;;7.53;2.07;;;7.50;99.90;;;;;;5092038;28;20535;-72
2023/04/13 05:00:46;;;;;;;7.23;2.00;;;7.60;99.90;;;;;;5091724;28;20172;-72
2023/04/13 05:03:12;;;;;;;7.43;2.27;;;7.60;99.90;;;;;;5092017;28;20214;-72
2023/04/13 05:05:37;;;;;;;7.10;1.80;;;7.70;99.90;;;;;;5091513;28;20219;-72
2023/04/13 05:08:04;;;;;;;5.00;2.00;;;7.70;99.90;;;;;;5091688;28;20164;-72
2023/04/13 05:10:29;;;;;;;4.13;2.10;;;7.70;99.90;;;;;;5091988;28;20643;-72
2023/04/13 05:12:55;;;;;;;4.97;2.20;;;7.70;99.90;;;;;;5093750;28;20176;-72
2023/04/13 05:15:21;;;;;;;5.23;1.93;;;7.70;99.90;;;;;;5096012;28;20168;-72
2023/04/13 05:17:49;;;;;;;12.87;2.30;;;7.80;99.90;;;;;;5095424;28;20175;-71
2023/04/13 05:20:16;;;;;;;10.73;1.83;;;7.90;99.90;;;;;;5095771;28;20175;-72
2023/04/13 05:22:42;;;;;;;7.90;1.87;;;8.00;99.90;;;;;;5093400;28;20182;-73
2023/04/13 05:25:08;;;;;;;7.77;1.93;;;8.00;99.90;;;;;;5095317;28;20204;-73
2023/04/13 05:27:34;;;;;;;3.47;1.73;;;8.10;99.90;;;;;;5094666;28;20172;-71
2023/04/13 05:29:59;;;;;;;3.83;1.90;;;8.10;99.90;;;;;;5094750;28;20264;-72
2023/04/13 05:32:25;;;;;;;6.83;1.90;;;8.20;99.90;;;;;;5095062;28;20191;-74
2023/04/13 05:34:51;;;;;;;6.50;1.90;;;8.40;99.90;;;;;;5095770;28;20241;-73
2023/04/13 05:37:17;;;;;;;7.40;2.10;;;8.60;99.90;;;;;;5093911;28;20635;-73
2023/04/13 05:39:43;;;;;;;4.63;1.93;;;8.90;99.90;;;;;;5094966;28;20302;-73
2023/04/13 05:42:10;;;;;;;9.00;2.60;;;9.00;99.90;;;;;;5094785;28;20221;-72
2023/04/13 05:44:36;;;;;;;3.83;2.13;;;9.10;99.90;;;;;;5094399;28;20663;-74
2023/04/13 05:47:02;;;;;;;13.83;2.30;;;9.00;99.90;;;;;;5094547;28;20168;-73
2023/04/13 05:49:27;;;;;;;7.70;2.67;;;8.90;99.90;;;;;;5092538;28;20534;-73
2023/04/13 05:51:53;;;;;;;9.40;2.53;;;8.80;99.90;;;;;;5094666;28;20167;-73
2023/04/13 05:54:19;;;;;;;11.70;3.20;;;8.70;99.90;;;;;;5093990;28;20475;-73
2023/04/13 05:56:46;;;;;;;7.17;2.47;;;8.70;99.90;;;;;;5093741;28;20187;-74
2023/04/13 05:59:13;;;;;;;7.60;2.53;;;8.80;99.90;;;;;;5093868;28;20180;-73
2023/04/13 06:01:38;;;;;;;10.43;2.60;;;8.80;99.90;;;;;;5093969;28;20172;-73
2023/04/13 06:04:04;;;;;;;9.83;3.23;;;8.80;99.90;;;;;;5093881;28;20183;-73
2023/04/13 06:06:31;;;;;;;7.77;2.90;;;8.80;99.90;;;;;;5094241;28;20180;-73
2023/04/13 06:08:56;;;;;;;10.10;3.07;;;8.90;99.90;;;;;;5093698;28;20538;-73
2023/04/13 06:11:23;;;;;;;10.67;3.13;;;9.00;99.90;;;;;;5094272;28;20171;-74
2023/04/13 06:13:50;;;;;;;11.17;3.47;;;9.10;99.90;;;;;;5094375;28;20226;-72
2023/04/13 06:16:16;;;;;;;18.03;3.23;;;9.10;99.90;;;;;;5094027;28;20168;-72
2023/04/13 06:18:42;;;;;;;8.73;3.43;;;9.10;99.90;;;;;;5092833;28;20194;-73
2023/04/13 06:21:07;;;;;;;14.07;3.47;;;9.40;99.90;;;;;;5094046;28;20225;-72
2023/04/13 06:23:33;;;;;;;18.67;3.80;;;9.70;99.90;;;;;;5092801;28;20182;-73
2023/04/13 06:25:59;;;;;;;14.40;4.03;;;10.10;99.90;;;;;;5094104;28;20716;-75
2023/04/13 06:28:29;;;;;;;12.53;3.80;;;10.70;86.90;;;;;;5093805;28;20250;-75
2023/04/13 06:30:55;;;;;;;15.00;3.80;;;11.40;55.10;;;;;;5093750;28;20172;-75
2023/04/13 06:33:22;;;;;;;9.80;3.23;;;12.10;21.00;;;;;;5093224;28;20164;-76
2023/04/13 06:35:48;;;;;;;15.10;3.90;;;12.50;9.80;;;;;;5091969;28;20204;-75
2023/04/13 06:38:14;;;;;;;10.93;3.20;;;12.90;1.00;;;;;;5092152;28;20603;-74
2023/04/13 06:40:40;;;;;;;13.93;3.73;;;13.00;1.00;;;;;;5093600;28;20187;-75
2023/04/13 06:43:08;;;;;;;11.33;3.87;;;13.20;1.00;;;;;;5091423;28;20191;-75
2023/04/13 06:45:34;;;;;;;9.57;2.97;;;13.50;1.00;;;;;;5092836;28;20212;-74
2023/04/13 06:48:00;;;;;;;9.57;3.20;;;13.20;1.00;;;;;;5091176;28;20183;-75
2023/04/13 06:50:26;;;;;;;10.63;3.57;;;13.20;1.00;;;;;;5093622;28;20176;-75
2023/04/13 06:52:52;;;;;;;13.43;3.77;;;13.90;1.00;;;;;;5091150;28;20223;-74
2023/04/13 06:55:18;;;;;;;10.23;3.23;;;14.60;1.00;;;;;;5092555;28;20179;-74
2023/04/13 06:57:44;;;;;;;11.83;3.30;;;15.20;1.00;;;;;;5091953;28;20182;-75
2023/04/13 07:00:13;;;;;;;9.67;3.30;;;15.10;1.00;;;;;;5092563;28;20172;-74
2023/04/13 07:02:42;;;;;;;12.17;2.93;;;15.40;1.00;;;;;;5092514;28;20303;-76
2023/04/13 07:05:10;;;;;;;10.03;2.80;;;14.90;1.00;;;;;;5092113;28;20678;-75
2023/04/13 07:07:36;;;;;;;10.57;3.50;;;14.90;1.00;;;;;;5092426;28;20191;-75
2023/04/13 07:10:07;;;;;;;7.83;3.40;;;15.30;1.00;;;;;;5092832;28;20635;-75
2023/04/13 07:12:33;;;;;;;11.93;3.30;;;16.00;99.90;;;;;;5092198;28;20203;-75
2023/04/13 07:14:59;;;;;;;13.30;3.33;;;16.60;66.60;;;;;;5092825;28;20184;-74
2023/04/13 07:17:29;;;;;;;9.07;3.17;;;16.80;1.00;;;;;;5091031;28;20194;-74
2023/04/13 07:19:57;;;;;;;12.05;3.45;;;16.80;1.00;;;;;;5093056;28;20216;-74
2023/04/13 07:22:23;;;;;;;9.55;3.30;;;16.70;99.90;;;;;;5092992;28;20171;-73
2023/04/13 07:24:49;;;;;;;12.50;3.33;;;16.70;99.90;;;;;;5092861;28;20263;-74
2023/04/13 07:27:14;;;;;;;11.90;2.97;;;15.90;99.90;;;;;;5091954;28;20171;-73
2023/04/13 07:29:51;;;;;;;9.10;3.17;;;15.60;1.00;;;;;;5092796;28;20178;-73
2023/04/13 07:32:16;;;;;;;8.20;3.27;;;15.20;1.00;;;;;;5091449;28;20175;-73
2023/04/13 07:34:42;;;;;;;11.33;3.27;;;14.30;1.00;;;;;;5081736;28;20172;-74
2023/04/13 07:37:08;;;;;;;11.87;2.90;;;13.50;1.00;;;;;;5087308;28;20172;-75
2023/04/13 07:39:34;;;;;;;13.93;3.30;;;13.30;1.00;;;;;;5090776;28;20238;-74
2023/04/13 07:42:00;;;;;;;14.00;2.83;;;13.30;1.00;;;;;;5091534;28;20619;-75
2023/04/13 07:44:26;;;;;;;13.97;3.20;;;13.50;1.00;;;;;;5091766;28;20302;-75
2023/04/13 07:46:55;;;;;;;8.53;2.60;;;13.90;1.00;;;;;;5091903;28;20658;-74
2023/04/13 07:49:23;;;;;;;11.57;2.67;;;14.30;1.00;;;;;;5090621;28;20229;-75
2023/04/13 07:51:53;;;;;;;7.40;2.43;;;14.40;1.00;;;;;;5091063;28;20218;-75
2023/04/13 07:54:19;;;;;;;11.43;2.83;;;14.30;1.00;;;;;;5091271;28;20179;-75
2023/04/13 07:56:48;;;;;;;14.07;4.77;;;14.50;1.00;;;;;;5091555;28;20195;-75
2023/04/13 07:59:16;;;;;;;10.00;2.67;;;14.70;1.00;;;;;;5088820;28;20232;-75
2023/04/13 08:01:45;;;;;;;10.43;3.33;;;14.60;99.90;;;;;;5091336;28;20203;-76
2023/04/13 08:04:10;;;;;;;9.97;2.90;;;14.60;1.00;;;;;;5090896;28;20229;-76
2023/04/13 08:06:37;;;;;;;10.27;2.60;;;14.60;1.00;;;;;;5091706;28;20180;-74
2023/04/13 08:09:02;;;;;;;11.00;3.10;;;15.00;99.90;;;;;;5091681;28;20255;-75
2023/04/13 08:11:28;;;;;;;15.40;2.87;;;14.10;1.00;;;;;;5092875;28;20202;-75
2023/04/13 08:13:53;;;;;;;9.30;2.73;;;14.00;1.00;;;;;;5092068;28;20167;-74
2023/04/13 08:16:19;;;;;;;10.97;2.70;;;14.00;1.00;;;;;;5092320;28;20630;-76
2023/04/13 08:18:48;;;;;;;10.40;3.20;;;14.50;1.00;;;;;;5090908;28;20160;-75
2023/04/13 08:21:14;;;;;;;10.63;2.87;;;14.50;99.90;;;;;;5093397;28;20256;-75
2023/04/13 08:23:42;;;;;;;10.93;2.97;;;14.30;1.00;;;;;;5094150;28;20198;-74
2023/04/13 08:26:19;;;;;;;6.43;2.63;;;13.60;1.00;;;;;;5091853;28;20215;-73
2023/04/13 08:28:47;;;;;;;10.00;3.43;;;12.90;1.00;;;;;;5091984;28;20189;-74
2023/04/13 08:31:13;;;;;;;10.37;2.70;;;12.90;1.00;;;;;;5092330;28;20208;-74
2023/04/13 08:33:39;;;;;;;9.30;2.70;;;12.60;1.00;;;;;;5091166;28;20226;-75
2023/04/13 08:36:05;;;;;;;8.53;2.67;;;12.60;1.00;;;;;;5092057;28;20175;-76
2023/04/13 08:38:32;;;;;;;13.30;3.13;;;13.20;1.00;;;;;;5092185;28;20619;-74
2023/04/13 08:41:00;;;;;;;9.93;2.87;;;13.30;1.00;;;;;;5093931;28;20657;-74
2023/04/13 08:43:26;;;;;;;10.90;3.27;;;13.00;1.00;;;;;;5091722;28;20174;-74
2023/04/13 08:45:52;;;;;;;14.13;3.00;;;12.70;1.00;;;;;;5092231;28;20212;-74
2023/04/13 08:48:18;;;;;;;10.23;2.77;;;12.50;1.00;;;;;;5095812;28;20233;-73
2023/04/13 08:50:45;;;;;;;11.13;3.03;;;12.20;1.00;;;;;;5095470;28;20178;-73
2023/04/13 08:53:14;;;;;;;11.10;3.10;;;12.10;1.00;;;;;;5096132;28;20171;-73
2023/04/13 08:55:46;;;;;;;10.50;3.10;;;12.60;1.00;;;;;;5097418;28;20175;-75
2023/04/13 08:58:18;;;;;;;11.00;2.73;;;13.70;1.00;;;;;;5096439;28;20275;-74
2023/04/13 09:00:48;;;;;;;8.93;2.20;;;14.10;99.90;;;;;;5096799;28;20225;-76
2023/04/13 09:03:22;;;;;;;9.50;2.90;;;15.20;1.00;;;;;;5096951;28;20195;-74
2023/04/13 09:05:56;;;;;;;9.30;2.83;;;16.20;1.00;;;;;;5096498;28;20249;-73
2023/04/13 09:08:22;;;;;;;12.10;2.75;;;17.20;99.90;;;;;;5095993;28;20168;-74
2023/04/13 09:10:48;;;;;;;9.95;3.20;;;17.10;1.00;;;;;;5095363;28;20176;-74
2023/04/13 09:13:14;;;;;;;6.47;3.15;;;17.50;1.00;;;;;;5095594;28;20172;-75
2023/04/13 09:15:41;;;;;;;7.28;2.65;;;17.40;99.90;;;;;;5095544;28;20172;-75
2023/04/13 09:18:11;;;;;;;8.95;2.65;;;17.70;99.90;;;;;;5096152;28;20168;-74
2023/04/13 09:20:37;;;;;;;10.02;2.92;;;17.20;1.00;;;;;;5096499;28;20160;-75
2023/04/13 09:23:14;;;;;;;8.52;2.58;;;16.30;65.70;;;;;;5095909;28;20170;-74
2023/04/13 09:25:39;;;;;;;11.37;2.80;;;15.40;1.00;;;;;;5097239;28;20245;-74
2023/04/13 09:28:17;;;;;;;11.10;2.57;;;14.50;99.90;;;;;;5096331;28;20206;-73
2023/04/13 09:30:45;;;;;;;13.90;2.97;;;14.20;99.90;;;;;;5096775;28;20176;-74
2023/04/13 09:33:13;;;;;;;6.43;2.57;;;14.50;1.00;;;;;;5099090;28;20164;-74
2023/04/13 09:35:41;;;;;;;8.70;2.77;;;15.20;1.00;;;;;;5095339;28;20229;-73
2023/04/13 09:38:07;;;;;;;9.17;3.10;;;14.70;1.00;;;;;;5096602;28;20186;-72
2023/04/13 09:40:37;;;;;;;9.40;2.77;;;15.20;1.00;;;;;;5096117;28;20203;-74
2023/04/13 09:43:05;;;;;;;9.60;2.80;;;15.40;99.90;;;;;;5096558;28;20191;-75
2023/04/13 09:45:34;;;;;;;9.00;3.00;;;16.40;1.00;;;;;;5095661;28;20203;-73
2023/04/13 09:48:01;;;;;;;7.00;2.80;;;16.80;99.90;;;;;;5096303;28;20172;-75
2023/04/13 09:50:28;;;;;;;7.53;2.67;;;17.40;1.00;;;;;;5093490;28;20175;-75
2023/04/13 09:52:59;;;;;;;9.02;2.92;;;17.30;99.90;;;;;;5097112;28;20634;-73
2023/04/13 09:55:26;;;;;;;11.68;3.00;;;17.30;1.00;;;;;;5096964;28;20176;-76
2023/04/13 09:57:54;;;;;;;9.38;2.83;;;17.90;99.90;;;;;;5095826;28;20198;-74
2023/04/13 10:00:20;;;;;;;9.93;2.67;;;18.10;1.00;;;;;;5092559;28;20212;-74
2023/04/13 10:02:50;;;;;;;9.40;2.65;;;17.20;99.90;;;;;;5092340;28;20681;-75
2023/04/13 10:05:18;;;;;;;9.02;2.40;;;16.40;1.00;;;;;;5096871;28;20336;-74
2023/04/13 10:07:50;;;;;;;5.68;2.25;;;16.00;1.00;;;;;;5096300;28;20233;-74
2023/04/13 10:10:16;;;;;;;6.15;2.15;;;16.60;1.00;;;;;;5096158;28;20180;-72
2023/04/13 10:12:48;;;;;;;6.60;2.33;;;17.40;1.00;;;;;;5097366;28;20162;-75
2023/04/13 10:15:32;;;;;;;6.95;2.35;;;17.40;99.90;;;;;;5095232;28;20586;-73
2023/04/13 10:18:16;;;;;;;6.53;2.08;;;17.00;99.90;;;;;;5094606;28;20600;-73
2023/04/13 10:20:43;;;;;;;8.13;2.60;;;16.00;1.00;;;;;;5093811;28;20255;-75
2023/04/13 10:23:09;;;;;;;9.90;2.90;;;14.90;99.90;;;;;;5092207;28;20213;-75
2023/04/13 10:25:35;;;;;;;8.17;2.70;;;14.70;1.00;;;;;;5093334;28;20220;-74
2023/04/13 10:28:04;;;;;;;5.97;2.63;;;14.50;1.00;;;;;;5094266;28;20655;-74
2023/04/13 10:30:32;;;;;;;8.80;2.30;;;14.30;1.00;;;;;;5092846;28;20187;-74
2023/04/13 10:33:04;;;;;;;8.30;2.60;;;14.60;1.00;;;;;;5094832;28;20168;-75
2023/04/13 10:35:32;;;;;;;11.93;3.07;;;15.50;1.00;;;;;;5093814;28;20643;-74
2023/04/13 10:37:58;;;;;;;8.30;3.00;;;16.40;1.00;;;;;;5093549;28;20305;-73
2023/04/13 10:40:23;;;;;;;8.67;2.60;;;15.30;99.90;;;;;;5092334;28;20687;-75
2023/04/13 10:42:50;;;;;;;7.87;2.43;;;15.20;1.00;;;;;;5092960;28;20203;-75
2023/04/13 10:45:17;;;;;;;6.33;2.50;;;15.20;99.90;;;;;;5093198;28;20265;-75
2023/04/13 10:47:43;;;;;;;9.48;2.75;;;15.60;99.90;;;;;;5093779;28;20190;-74
2023/04/13 10:50:38;;;;;;;6.22;2.47;;;16.30;1.00;;;;;;5093525;28;20262;-75
2023/04/13 10:53:06;;;;;;;7.57;2.60;;;17.30;1.00;;;;;;5079540;28;20200;-75
2023/04/13 10:55:33;;;;;;;4.45;2.10;;;18.00;1.00;;;;;;5093125;28;20172;-74
2023/04/13 10:58:00;;;;;;;7.38;2.42;;;17.50;1.00;;;;;;5093075;28;20267;-74
2023/04/13 11:00:29;;;;;;;7.70;2.40;;;16.80;99.90;;;;;;5094105;28;20176;-74
2023/04/13 11:03:08;;;;;;;6.63;2.40;;;16.10;99.90;;;;;;5093466;28;20171;-74
2023/04/13 11:05:37;;;;;;;5.95;2.15;;;15.60;1.00;;;;;;5093415;28;20203;-73
2023/04/13 11:08:03;;;;;;;7.55;2.38;;;15.70;10.80;;;;;;5091996;28;20160;-74
2023/04/13 11:10:32;;;;;;;4.72;2.05;;;15.80;8.90;;;;;;5091404;28;20172;-73
2023/04/13 11:12:58;;;;;;;6.88;2.50;;;15.70;1.00;;;;;;5092673;28;20191;-74
2023/04/13 11:15:26;;;;;;;10.27;2.55;;;15.50;1.00;;;;;;5093220;28;20176;-74
2023/04/13 11:17:53;;;;;;;7.68;2.40;;;16.00;99.90;;;;;;5092979;28;20175;-74
2023/04/13 11:20:29;;;;;;;8.32;2.45;;;17.00;1.00;;;;;;5091632;28;20255;-73
2023/04/13 11:22:56;;;;;;;7.65;2.17;;;18.10;99.90;;;;;;5092802;28;20160;-73
2023/04/13 11:25:22;;;;;;;5.72;2.13;;;18.70;1.00;;;;;;5093033;28;20196;-73
2023/04/13 11:27:57;;;;;;;9.77;2.42;;;18.90;1.00;;;;;;5092534;28;20167;-73
2023/04/13 11:30:24;;;;;;;5.32;1.83;;;18.50;1.00;;;;;;5092583;28;20171;-74
2023/04/13 11:32:52;;;;;;;4.68;2.05;;;18.00;1.00;;;;;;5092310;28;20680;-73
2023/04/13 11:35:19;;;;;;;6.55;1.98;;;17.70;1.00;;;;;;5092952;28;20200;-74
2023/04/13 11:37:51;;;;;;;6.18;2.22;;;17.70;1.00;;;;;;5091070;28;20172;-75
2023/04/13 11:40:21;;;;;;;8.75;2.17;;;18.70;1.00;;;;;;5089135;28;20245;-74
2023/04/13 11:42:52;;;;;;;5.35;1.80;;;18.60;1.00;;;;;;5090252;28;20172;-74
2023/04/13 11:45:21;;;;;;;7.00;1.90;;;17.70;1.00;;;;;;5092173;28;20207;-74
2023/04/13 11:47:47;;;;;;;7.28;1.85;;;17.50;1.00;;;;;;5091158;28;20164;-74
2023/04/13 11:50:13;;;;;;;7.47;1.90;;;17.50;1.00;;;;;;5092767;28;20175;-73
2023/04/13 11:52:40;;;;;;;16.73;8.38;;;16.20;41.40;;;;;;5091838;28;20160;-72
2023/04/13 11:55:07;;;;;;;7.72;2.20;;;16.10;99.90;;;;;;5087524;28;20180;-74
2023/04/13 11:57:33;;;;;;;20.30;11.70;;;16.40;88.00;;;;;;5090639;28;20176;-73
2023/04/13 11:59:59;;;;;;;7.50;2.08;;;17.60;1.00;;;;;;5090073;28;20313;-73
2023/04/13 12:02:29;;;;;;;8.63;2.60;;;17.70;1.00;;;;;;5089036;28;20168;-74
2023/04/13 12:04:56;;;;;;;5.72;1.95;;;17.80;1.00;;;;;;5090943;28;20219;-76
2023/04/13 12:07:23;;;;;;;6.53;2.88;;;17.80;1.00;;;;;;5090891;28;20159;-74
2023/04/13 12:09:50;;;;;;;6.65;2.28;;;17.80;1.00;;;;;;5092217;28;20179;-75
2023/04/13 12:12:21;;;;;;;8.20;1.70;;;17.50;1.00;;;;;;5091841;28;20708;-75
2023/04/13 12:14:58;;;;;;;4.63;1.73;;;17.20;1.00;;;;;;5091785;28;20238;-76
2023/04/13 12:17:31;;;;;;;2.75;1.58;;;16.50;1.00;;;;;;5089997;28;20171;-75
2023/04/13 12:19:59;;;;;;;6.68;1.60;;;16.10;1.00;;;;;;5091984;28;20168;-74
2023/04/13 12:22:55;;;;;;;4.43;1.57;;;15.40;1.00;;;;;;5090899;28;20168;-76
2023/04/13 12:25:22;;;;;;;4.47;1.60;;;15.40;79.50;;;;;;5012972;28;20226;-75
2023/04/13 12:27:55;;;;;;;3.53;1.80;;;15.60;1.00;;;;;;5025172;28;20174;-75
2023/04/13 12:30:21;;;;;;;5.03;1.87;;;15.80;42.60;;;;;;5009559;28;20209;-75
2023/04/13 12:32:52;;;;;;;5.13;2.03;;;15.90;65.90;;;;;;5009557;28;20171;-76
2023/04/13 12:35:18;;;;;;;6.43;2.20;;;16.20;1.00;;;;;;5009427;28;20205;-75
2023/04/13 12:37:44;;;;;;;3.72;1.60;;;16.40;1.00;;;;;;5008763;28;20555;-76
2023/04/13 12:40:14;;;;;;;3.40;1.70;;;16.30;1.00;;;;;;5025204;28;20238;-76
2023/04/13 12:42:47;;;;;;;4.85;2.10;;;16.00;40.00;;;;;;5026915;28;20209;-76
2023/04/13 12:45:14;;;;;;;5.22;2.05;;;16.30;39.00;;;;;;4992753;28;20284;-74
2023/04/13 12:47:43;;;;;;;5.13;1.77;;;16.30;1.00;;;;;;5009031;28;20634;-77
2023/04/13 12:50:10;;;;;;;5.27;1.63;;;16.20;1.00;;;;;;5008433;28;20244;-76
2023/04/13 12:52:39;;;;;;;4.32;1.80;;;15.90;96.10;;;;;;4992418;28;20175;-76
2023/04/13 12:55:09;;;;;;;8.10;1.97;;;15.90;1.00;;;;;;5013347;28;20186;-76
2023/04/13 12:57:34;;;;;;;4.40;3.03;;;15.80;1.00;;;;;;5028330;28;20202;-76